Great Dunmow, United Kingdom
Current Conditions -  °F | °C
As of 4:20 AM on Saturday 20 Dec 2014 (Local Time) from EGSS Reporting Station
Scattered Clouds Scattered Clouds  
Wind Chill: 32°   Ceiling: Unl
Heat Index: 39°   Visibility: 6mi
Dew Point: 36°   Wind: 12mph
Humidity: 87%   Direction: 240°WSW
Pressure: 30.18"   Gusts: NA
Location:  51.87°N, 0.36°E
Report Text: EGSS 200420Z 24010KT 9999 SCT033 SCT040 04/02 Q1022
Loading
Personal Weather Stations






























Interactive Weather Map New forecast layout! Learn more

10-Day Weather Forecast

Advertisements
Track Severe Weather on mobile